Time;durP1;ratioP1;P1;durP2;ratioP2;P2;SDS_P1;SDS_P2;PMS_P1;PMS_P2;Temp;Humidity;BMP_temperature;BMP_pressure;BME280_temperature;BME280_humidity;BME280_pressure;Samples;Min_cycle;Max_cycle;Signal;HPM_P1;HPM_P2
2022/10/23 20:20:09;;;;;;;;;1.00;1.00;;;;;19.60;54.20;100051.16;5136905;27;45522;-68
2022/10/23 20:22:35;;;;;;;;;1.00;1.00;;;;;19.68;53.59;100056.72;5129055;27;45473;-70
2022/10/23 20:25:01;;;;;;;;;1.25;1.25;;;;;19.67;53.32;100065.03;5151885;27;45346;-71
2022/10/23 20:27:27;;;;;;;;;0.50;0.50;;;;;19.56;53.86;100057.91;5137881;27;45553;-68
2022/10/23 20:29:52;;;;;;;;;2.75;1.25;;;;;19.59;53.49;100065.75;5136100;27;45838;-70
2022/10/23 20:32:18;;;;;;;;;1.50;0.75;;;;;19.59;53.14;100079.34;5153556;27;45395;-68
2022/10/23 20:34:43;;;;;;;;;0.75;0.75;;;;;19.53;53.60;100078.06;5135453;27;45337;-71
2022/10/23 20:37:09;;;;;;;;;2.00;2.00;;;;;19.56;53.51;100085.91;5139763;27;45515;-68
2022/10/23 20:39:35;;;;;;;;;1.00;1.00;;;;;19.55;53.78;100095.09;5134502;27;45498;-68
2022/10/23 20:42:06;;;;;;;;;2.00;2.00;;;;;19.54;53.38;100098.81;5135795;27;45570;-69
2022/10/23 20:44:31;;;;;;;;;2.00;2.00;;;;;19.47;53.56;100094.97;5137339;27;45533;-71
2022/10/23 20:46:57;;;;;;;;;2.50;2.50;;;;;19.44;53.71;100094.34;5145977;27;45213;-69
2022/10/23 20:49:24;;;;;;;;;1.50;1.50;;;;;19.43;53.78;100093.47;5153293;27;45346;-68
2022/10/23 20:55:12;;;;;;;;;3.50;3.50;;;;;19.32;53.74;100100.91;5135369;27;45600;-70
2022/10/23 20:57:37;;;;;;;;;3.25;3.25;;;;;19.37;53.50;100106.78;5143388;27;45490;-70
2022/10/23 21:00:04;;;;;;;;;4.00;3.00;;;;;19.33;53.50;100106.22;5113195;27;50712;-71
2022/10/23 21:02:31;;;;;;;;;3.50;3.50;;;;;19.31;53.58;100107.38;5137608;27;45449;-73
2022/10/23 21:04:56;;;;;;;;;4.00;2.50;;;;;19.23;52.87;100108.91;5143979;27;45301;-71
2022/10/23 21:07:22;;;;;;;;;7.50;6.00;;;;;19.16;53.13;100093.31;5138648;27;45432;-72
2022/10/23 21:09:47;;;;;;;;;7.25;4.50;;;;;19.10;53.31;100097.47;5137107;27;45499;-70
2022/10/23 21:12:13;;;;;;;;;4.25;4.25;;;;;19.09;53.16;100093.03;5139407;27;45739;-68
2022/10/23 21:14:39;;;;;;;;;7.75;6.50;;;;;19.13;52.31;100094.47;5133830;27;45290;-69
2022/10/23 21:17:04;;;;;;;;;5.25;5.25;;;;;19.21;52.06;100089.19;5147141;27;45401;-70
2022/10/23 21:19:29;;;;;;;;;3.25;3.25;;;;;19.25;52.16;100097.91;5138573;27;45948;-71
2022/10/23 21:21:55;;;;;;;;;5.50;5.50;;;;;19.30;52.02;100079.31;5124660;27;45496;-70
2022/10/23 21:27:42;;;;;;;;;5.50;5.25;;;;;19.40;51.46;100098.34;5118551;27;45460;-70
2022/10/23 21:30:09;;;;;;;;;5.00;5.00;;;;;19.43;51.33;100092.63;5120503;27;46040;-68
2022/10/23 21:32:34;;;;;;;;;4.25;4.25;;;;;19.45;51.92;100090.63;5118185;27;45431;-70
2022/10/23 21:34:59;;;;;;;;;4.50;4.50;;;;;19.45;51.66;100094.22;5127500;27;45418;-70
2022/10/23 21:37:25;;;;;;;;;4.75;4.75;;;;;19.48;52.14;100091.22;5138992;27;45441;-69
2022/10/23 21:39:51;;;;;;;;;6.50;5.50;;;;;19.43;51.63;100088.03;5138865;27;45349;-71
2022/10/23 21:42:16;;;;;;;;;5.00;5.00;;;;;19.41;51.81;100090.03;5137594;27;45323;-70
2022/10/23 21:44:42;;;;;;;;;7.25;4.25;;;;;19.50;51.96;100104.66;5117199;27;45452;-69
2022/10/23 21:47:07;;;;;;;;;4.50;4.50;;;;;19.36;52.29;100091.47;5127013;27;45673;-71
2022/10/23 21:49:33;;;;;;;;;2.50;2.50;;;;;19.45;52.42;100117.81;5118231;27;45314;-68
2022/10/23 21:51:58;;;;;;;;;3.25;3.25;;;;;19.44;52.81;100111.50;5118702;27;45297;-71
2022/10/23 21:54:24;;;;;;;;;4.25;3.25;;;;;19.44;52.72;100110.66;5114109;27;45355;-71
2022/10/23 21:57:12;;;;;;;;;4.25;2.50;;;;;19.45;53.28;100125.97;5121994;27;45515;-70
2022/10/23 21:59:37;;;;;;;;;4.75;4.75;;;;;19.40;53.02;100115.50;5125185;27;45782;-71
2022/10/23 22:02:03;;;;;;;;;3.00;3.00;;;;;19.37;53.27;100118.53;5120075;27;45372;-69
2022/10/23 22:07:50;;;;;;;;;3.50;2.25;;;;;19.38;53.59;100111.22;5131899;27;46223;-69
2022/10/23 22:10:16;;;;;;;;;2.00;2.00;;;;;19.36;53.64;100114.09;5119000;27;46133;-70
2022/10/23 22:16:03;;;;;;;;;3.25;3.25;;;;;19.31;53.88;100132.66;5122258;27;45433;-71
2022/10/23 22:18:28;;;;;;;;;2.25;2.25;;;;;19.32;54.18;100128.09;5123099;27;45500;-71
2022/10/23 22:21:02;;;;;;;;;3.00;2.00;;;;;19.28;54.31;100127.53;5117448;27;45301;-71
2022/10/23 22:23:28;;;;;;;;;4.00;2.50;;;;;19.23;54.42;100116.19;5122683;27;45270;-72
2022/10/23 22:25:54;;;;;;;;;3.00;2.00;;;;;19.17;54.83;100136.66;5117161;27;45502;-71
2022/10/23 22:28:19;;;;;;;;;1.50;1.50;;;;;19.17;54.81;100139.38;5116739;27;45306;-71
2022/10/23 22:30:45;;;;;;;;;2.25;2.25;;;;;19.18;55.07;100119.34;5116072;27;46147;-71
2022/10/23 22:33:10;;;;;;;;;3.00;2.00;;;;;19.15;55.52;100159.53;5116105;27;45291;-70
2022/10/23 22:35:35;;;;;;;;;3.25;0.50;;;;;19.06;55.59;100122.31;5116996;27;45330;-71
2022/10/23 22:38:01;;;;;;;;;3.25;1.50;;;;;19.09;55.60;100128.34;5116833;27;45310;-71
2022/10/23 22:40:29;;;;;;;;;2.25;1.25;;;;;19.11;55.85;100144.50;5116468;27;46308;-70
2022/10/23 22:42:54;;;;;;;;;1.00;1.00;;;;;19.12;55.63;100148.94;5116714;27;45411;-70
2022/10/23 22:45:20;;;;;;;;;1.00;1.00;;;;;19.07;56.13;100137.63;5116193;27;45490;-70
2022/10/23 22:47:45;;;;;;;;;1.00;1.00;;;;;19.11;56.08;100156.25;5116682;27;45296;-70
2022/10/23 22:50:10;;;;;;;;;0.75;0.75;;;;;19.16;56.05;100155.81;5116257;27;46102;-73
2022/10/23 22:52:36;;;;;;;;;2.50;0.50;;;;;19.08;56.48;100150.22;5116657;27;45280;-71
2022/10/23 22:55:01;;;;;;;;;0.00;0.00;;;;;19.08;56.58;100167.38;5116378;27;45322;-71
2022/10/23 22:57:26;;;;;;;;;0.00;0.00;;;;;19.03;56.70;100164.22;5116735;27;45275;-72
2022/10/23 22:59:52;;;;;;;;;1.75;0.00;;;;;18.87;57.08;100144.88;5115797;27;45397;-70
